Terminal Aerodrome Forecast
Issued by NWS Billings, MT

Home | Current Version | Previous Version | Graphics & Text | Print | Product List | Glossary On
Versions: 1 2 3 4 5 6 7 8 9 10 11 12 13 14 15 16
000
FTUS45 KBYZ 161727
TAFMLS
TAF
KMLS 161727Z 1618/1718 02007KT P6SM VCSH BKN100
     FM162200 07008KT P6SM BKN080
     FM170800 10006KT P6SM VCSH SCT020 BKN050
     FM171400 15012KT P6SM VCSH SCT030 BKN050=

USA.gov is the U.S. government's official web portal to all federal, state and local government web resources and services.